Hlavní strana
METAR-TAF:

METAR-TAF

Letiště :

Robinson Municipal Airport

Robinson, Illinois, Spojené státy americké

zeměpisná šířka: 39-00-57N, zeměpisná délka: 087-38-59W, výška: 141 m

Aktuální stav počasí

Zpráva byla vytvořena před 14 minutami, v 18:35 UTC
Severozápadní vítr 13 kt s nárazy do 16 kt
Teplota 4°C
Vlhkost vzduchu 81%
Tlak 1023 hPa
Viditelnost: 16.1 km
Oblačno až skoro zataženo ve výšce 1800 ft
Zataženo ve výšce 2300 ft

METAR: KRSV 181835Z AUTO 32013G16KT 10SM BKN018 OVC023 04/01 A3022 RMK AO2 T00350007

Čas: 12:49 (18:49 UTC)


TAF: chybějící

Stav a předpovědi počasí z více než 4 000 letišť (zprávy METAR a TAF).

Červené a žluté tečky na mapě představují dostupné meteorologické stanice.

Když kurzor umístíte na tečku, zobrazí se název stanice.

Pak kliknutím zobrazíte stav a předpověď počasí.

Chcete-li změnit mapu, kliknutím na zelené tlačítko se znaménkem +mapu přiblížíte, kliknutím na zelené tlačítko se znaménkem – mapu oddálíte a kliknutím na zelené šipky přejdete na sousední mapy.


METAR-TAF: